| time (UTC) | temp F | wind direction | speed MPH | gust MPH | rain 1hr in | rain 24hr in | rain mn in | humidity % | barometer mb |
| 20260508193040 | 75 | 126 | 0.0 | 8.0 | 0.00 | 0.35 | 0.35 | 68 | 1011.7 |
| 20260508191537 | 76 | 57 | 0.0 | 4.0 | 0.00 | 0.35 | 0.35 | 67 | 1011.8 |
| 20260508190042 | 77 | 64 | 1.0 | 8.0 | 0.00 | 0.35 | 0.35 | 65 | 1011.9 |
| 20260508184543 | 77 | 126 | 2.0 | 5.0 | 0.00 | 0.35 | 0.35 | 64 | 1011.9 |
| 20260508183035 | 77 | 131 | 0.0 | 5.0 | 0.00 | 0.35 | 0.35 | 65 | 1012.1 |
| 20260508181543 | 77 | 144 | 2.0 | 6.0 | 0.00 | 0.35 | 0.35 | 65 | 1012.4 |
| 20260508180028 | 76 | 100 | 2.0 | 6.0 | 0.00 | 0.35 | 0.35 | 65 | 1012.8 |
| 20260508174534 | 76 | 52 | 2.0 | 6.0 | 0.00 | 0.35 | 0.35 | 65 | 1012.9 |
| 20260508173022 | 75 | 56 | 0.0 | 4.0 | 0.00 | 0.35 | 0.35 | 67 | 1013.2 |
| 20260508171518 | 74 | 59 | 1.0 | 3.0 | 0.00 | 0.35 | 0.35 | 67 | 1013.2 |
| 20260508170015 | 72 | 61 | 2.0 | 7.0 | 0.00 | 0.35 | 0.35 | 69 | 1013.6 |
| 20260508164511 | 71 | 120 | 1.0 | 5.0 | 0.00 | 0.35 | 0.35 | 70 | 1013.9 |
| 20260508163007 | 70 | 53 | 1.0 | 4.0 | 0.00 | 0.35 | 0.35 | 71 | 1014.4 |
| 20260508161503 | 68 | 46 | 1.0 | 5.0 | 0.00 | 0.35 | 0.35 | 78 | 1014.7 |
| 20260508160104 | 67 | 120 | 0.0 | 4.0 | 0.00 | 0.35 | 0.35 | 79 | 1014.8 |
| 20260508154557 | 66 | 69 | 1.0 | 5.0 | 0.00 | 0.35 | 0.35 | 81 | 1014.9 |
| 20260508153100 | 65 | 24 | 0.0 | 3.0 | 0.00 | 0.35 | 0.35 | 85 | 1015.2 |
| 20260508151551 | 64 | 74 | 0.0 | 3.0 | 0.00 | 0.35 | 0.35 | 86 | 1015.0 |
| 20260508150053 | 64 | 76 | 0.0 | 3.0 | 0.00 | 0.35 | 0.35 | 89 | 1015.5 |
| 20260508144553 | 63 | 80 | 0.0 | 1.0 | 0.00 | 0.35 | 0.35 | 93 | 1015.3 |
| 20260508143055 | 63 | 81 | 0.0 | 2.0 | 0.00 | 0.35 | 0.35 | 94 | 1015.5 |
| 20260508141556 | 62 | 84 | 0.0 | 1.0 | 0.00 | 0.35 | 0.35 | 94 | 1015.8 |
| 20260508140046 | 62 | 84 | 0.0 | 2.0 | 0.00 | 0.35 | 0.35 | 94 | 1015.6 |
| 20260508134556 | 61 | 84 | 0.0 | 0.0 | 0.01 | 0.35 | 0.35 | 94 | 1015.5 |
| 20260508133046 | 61 | 84 | 0.0 | 1.0 | 0.02 | 0.35 | 0.35 | 94 | 1015.4 |
| 20260508131545 | 60 | 84 | 0.0 | 0.0 | 0.02 | 0.35 | 0.35 | 94 | 1015.5 |
| 20260508130044 | 60 | 84 | 0.0 | 1.0 | 0.08 | 0.35 | 0.35 | 94 | 1015.6 |
| 20260508124544 | 60 | 84 | 0.0 | 0.0 | 0.07 | 0.34 | 0.34 | 93 | 1015.7 |
| 20260508123051 | 60 | 84 | 0.0 | 3.0 | 0.06 | 0.33 | 0.33 | 93 | 1015.7 |
| 20260508121544 | 60 | 97 | 0.0 | 1.0 | 0.06 | 0.33 | 0.33 | 93 | 1015.4 |
| 20260508120045 | 60 | 59 | 0.0 | 2.0 | 0.00 | 0.27 | 0.27 | 93 | 1016.1 |
| 20260508114548 | 60 | 57 | 0.0 | 3.0 | 0.01 | 0.27 | 0.27 | 93 | 1015.5 |
| 20260508113049 | 60 | 86 | 0.0 | 2.0 | 0.05 | 0.27 | 0.27 | 93 | 1015.5 |
| 20260508111544 | 60 | 86 | 0.0 | 3.0 | 0.24 | 0.27 | 0.27 | 93 | 1015.4 |
| 20260508110039 | 60 | 88 | 1.0 | 3.0 | 0.24 | 0.27 | 0.27 | 93 | 1015.3 |
| 20260508104541 | 60 | 96 | 0.0 | 3.0 | 0.23 | 0.26 | 0.26 | 92 | 1015.2 |
| 20260508103040 | 61 | 112 | 0.0 | 3.0 | 0.18 | 0.21 | 0.21 | 92 | 1015.8 |
| 20260508101536 | 60 | 52 | 0.0 | 0.0 | 0.00 | 0.03 | 0.03 | 92 | 1015.2 |
| 20260508100036 | 60 | 50 | 0.0 | 1.0 | 0.00 | 0.03 | 0.03 | 92 | 1015.4 |
| 20260508094546 | 61 | 50 | 0.0 | 1.0 | 0.00 | 0.03 | 0.03 | 91 | 1015.1 |
| 20260508093035 | 61 | 50 | 0.0 | 1.0 | 0.01 | 0.03 | 0.03 | 91 | 1014.9 |
| 20260508091539 | 61 | 50 | 0.0 | 0.0 | 0.01 | 0.03 | 0.03 | 90 | 1015.0 |
| 20260508090032 | 61 | 50 | 0.0 | 0.0 | 0.01 | 0.03 | 0.03 | 90 | 1015.2 |
| 20260508084531 | 61 | 50 | 0.0 | 2.0 | 0.02 | 0.03 | 0.03 | 89 | 1014.9 |
| 20260508083029 | 61 | 50 | 0.0 | 1.0 | 0.02 | 0.02 | 0.02 | 88 | 1015.4 |
| 20260508081554 | 61 | 60 | 0.0 | 1.0 | 0.02 | 0.02 | 0.02 | 88 | 1016.3 |
| 20260508080025 | 62 | 60 | 0.0 | 1.0 | 0.02 | 0.02 | 0.02 | 86 | 1015.0 |
| 20260508074522 | 63 | 60 | 0.0 | 1.0 | 0.01 | 0.01 | 0.01 | 82 | 1016.2 |
| 20260508073026 | 63 | 60 | 0.0 | 0.0 | 0.00 | 0.00 | 0.00 | 80 | 1016.3 |
| 20260508071536 | 62 | 59 | 0.0 | 0.0 | 0.00 | 0.00 | 0.00 | 77 | 1016.8 |
| 20260508070018 | 62 | 59 | 0.0 | 0.0 | 0.00 | 0.00 | 0.00 | 76 | 1016.4 |
| 20260508064516 | 62 | 59 | 0.0 | 0.0 | 0.00 | 0.00 | 0.00 | 76 | 1016.4 |
| 20260508063028 | 62 | 59 | 0.0 | 0.0 | 0.00 | 0.00 | 0.00 | 75 | 1016.7 |
| 20260508061516 | 62 | 59 | 0.0 | 0.0 | 0.00 | 0.00 | 0.00 | 74 | 1017.0 |
| 20260508060011 | 62 | 59 | 0.0 | 0.0 | 0.00 | 0.00 | 0.00 | 74 | 1017.0 |
| 20260508054512 | 62 | 59 | 0.0 | 0.0 | 0.00 | 0.00 | 0.00 | 73 | 1016.8 |
| 20260508053010 | 63 | 59 | 0.0 | 0.0 | 0.00 | 0.00 | 0.00 | 72 | 1016.8 |
| 20260508051507 | 63 | 59 | 0.0 | 0.0 | 0.00 | 0.00 | 0.00 | 72 | 1017.0 |
| 20260508050005 | 63 | 59 | 0.0 | 0.0 | 0.00 | 0.00 | 0.00 | 71 | 1016.9 |
| 20260508044506 | 63 | 59 | 0.0 | 0.0 | 0.00 | 0.00 | 0.00 | 70 | 1017.0 |
| 20260508043005 | 63 | 59 | 0.0 | 0.0 | 0.00 | 0.00 | 0.00 | 69 | 1017.0 |
| 20260508041504 | 64 | 59 | 0.0 | 0.0 | 0.00 | 0.00 | 0.00 | 68 | 1016.9 |
| 20260508040004 | 64 | 59 | 0.0 | 0.0 | 0.00 | 0.00 | 0.00 | 66 | 1016.9 |
| 20260508034504 | 64 | 59 | 0.0 | 0.0 | 0.00 | 0.00 | 0.00 | 66 | 1016.7 |
| 20260508033003 | 65 | 59 | 0.0 | 0.0 | 0.00 | 0.00 | 0.00 | 65 | 1016.7 |
| 20260508031503 | 65 | 59 | 0.0 | 0.0 | 0.00 | 0.00 | 0.00 | 64 | 1016.6 |
| 20260508030005 | 65 | 59 | 0.0 | 1.0 | 0.00 | 0.00 | 0.00 | 63 | 1016.5 |
| 20260508024502 | 66 | 59 | 0.0 | 0.0 | 0.00 | 0.00 | 0.00 | 63 | 1016.4 |
| 20260508023002 | 66 | 59 | 0.0 | 0.0 | 0.00 | 0.00 | 0.00 | 62 | 1016.1 |
| 20260508021501 | 67 | 59 | 0.0 | 1.0 | 0.00 | 0.00 | 0.00 | 62 | 1016.1 |
| 20260508020105 | 67 | 59 | 0.0 | 3.0 | 0.00 | 0.00 | 0.00 | 61 | 1016.0 |
| 20260508014600 | 67 | 59 | 0.0 | 2.0 | 0.00 | 0.00 | 0.00 | 60 | 1015.9 |
| 20260508013100 | 68 | 59 | 0.0 | 3.0 | 0.00 | 0.00 | 0.00 | 60 | 1015.9 |
| 20260508011600 | 68 | 55 | 0.0 | 3.0 | 0.00 | 0.00 | 0.00 | 59 | 1015.9 |
| 20260508010100 | 68 | 47 | 0.0 | 4.0 | 0.00 | 0.00 | 0.00 | 58 | 1016.0 |
| 20260508004603 | 69 | 36 | 0.0 | 5.0 | 0.00 | 0.00 | 0.00 | 57 | 1015.7 |
| 20260508003105 | 69 | 53 | 2.0 | 4.0 | 0.00 | 0.00 | 0.00 | 56 | 1015.7 |
| 20260508001556 | 70 | 56 | 2.0 | 7.0 | 0.00 | 0.00 | 0.00 | 55 | 1015.9 |
| 20260508000058 | 71 | 33 | 1.0 | 4.0 | 0.00 | 0.00 | 0.00 | 54 | 1016.2 |
| 20260507234557 | 72 | 28 | 2.0 | 6.0 | 0.00 | 0.00 | 0.00 | 53 | 1016.0 |
| 20260507233056 | 73 | 77 | 1.0 | 3.0 | 0.00 | 0.00 | 0.00 | 51 | 1015.9 |
| 20260507231558 | 73 | 304 | 0.0 | 1.0 | 0.00 | 0.00 | 0.00 | 49 | 1015.9 |
| 20260507230053 | 73 | 304 | 0.0 | 1.0 | 0.00 | 0.00 | 0.00 | 50 | 1016.2 |
| 20260507224558 | 73 | 304 | 0.0 | 1.0 | 0.00 | 0.00 | 0.00 | 49 | 1016.2 |
| 20260507223052 | 73 | 304 | 0.0 | 1.0 | 0.00 | 0.00 | 0.00 | 49 | 1016.3 |
| 20260507221550 | 74 | 304 | 0.0 | 0.0 | 0.00 | 0.00 | 0.00 | 48 | 1016.4 |
| 20260507220050 | 74 | 304 | 0.0 | 0.0 | 0.00 | 0.00 | 0.00 | 48 | 1016.4 |
| 20260507214601 | 74 | 304 | 0.0 | 2.0 | 0.00 | 0.00 | 0.00 | 46 | 1016.7 |
| 20260507213046 | 75 | 304 | 0.0 | 1.0 | 0.00 | 0.00 | 0.00 | 46 | 1016.9 |
| 20260507211548 | 76 | 302 | 0.0 | 2.0 | 0.00 | 0.00 | 0.00 | 45 | 1017.0 |
| 20260507210044 | 76 | 282 | 0.0 | 3.0 | 0.00 | 0.00 | 0.00 | 44 | 1017.1 |
| 20260507204543 | 76 | 283 | 0.0 | 2.0 | 0.00 | 0.00 | 0.00 | 45 | 1017.1 |
| 20260507203101 | 76 | 281 | 1.0 | 3.0 | 0.00 | 0.00 | 0.00 | 44 | 1017.1 |
| 20260507201549 | 77 | 280 | 0.0 | 4.0 | 0.00 | 0.00 | 0.00 | 43 | 1017.5 |
| 20260507200053 | 77 | 232 | 0.0 | 4.0 | 0.00 | 0.00 | 0.00 | 43 | 1017.8 |
| 20260507194536 | 77 | 313 | 0.0 | 4.0 | 0.00 | 0.00 | 0.00 | 44 | 1017.9 |